TimePDT,TemperatureF,Dew PointF,Humidity,Sea Level PressureIn,VisibilityMPH,Wind Direction,Wind SpeedMPH,Gust SpeedMPH,PrecipitationIn,Events,Conditions,WindDirDegrees,DateUTC
12:53 AM,69.1,30.0,23,29.80,10.0,ESE,4.6,-,N/A,,Clear,110,2013-03-27 07:53:00
1:53 AM,66.9,32.0,27,29.80,10.0,Calm,Calm,-,N/A,,Clear,0,2013-03-27 08:53:00
2:53 AM,66.0,33.1,29,29.78,10.0,Calm,Calm,-,N/A,,Clear,0,2013-03-27 09:53:00
3:53 AM,63.0,35.1,35,29.78,10.0,Calm,Calm,-,N/A,,Clear,0,2013-03-27 10:53:00
4:53 AM,64.0,36.0,35,29.79,10.0,Calm,Calm,-,N/A,,Clear,0,2013-03-27 11:53:00
5:53 AM,60.1,39.0,46,29.81,10.0,SSE,3.5,-,N/A,,Clear,150,2013-03-27 12:53:00
6:53 AM,60.1,39.0,46,29.83,10.0,ESE,3.5,-,N/A,,Clear,110,2013-03-27 13:53:00
7:53 AM,64.9,37.0,36,29.85,10.0,Calm,Calm,-,N/A,,Clear,0,2013-03-27 14:53:00
8:53 AM,69.1,37.0,31,29.86,10.0,Calm,Calm,-,N/A,,Clear,0,2013-03-27 15:53:00
9:53 AM,73.0,34.0,24,29.87,10.0,Calm,Calm,-,N/A,,Clear,0,2013-03-27 16:53:00
10:53 AM,75.0,34.0,22,29.87,10.0,Calm,Calm,-,N/A,,Scattered Clouds,0,2013-03-27 17:53:00
11:53 AM,77.0,33.1,20,29.87,10.0,SSE,3.5,-,N/A,,Clear,150,2013-03-27 18:53:00
12:53 PM,80.1,32.0,17,29.86,10.0,ESE,9.2,-,N/A,,Clear,110,2013-03-27 19:53:00
1:53 PM,82.9,34.0,17,29.83,10.0,NE,6.9,-,N/A,,Scattered Clouds,50,2013-03-27 20:53:00
2:53 PM,84.0,34.0,17,29.81,10.0,Calm,Calm,-,N/A,,Scattered Clouds,0,2013-03-27 21:53:00
3:53 PM,86.0,35.1,16,29.80,10.0,NW,13.8,25.3,N/A,,Scattered Clouds,320,2013-03-27 22:53:00
4:53 PM,84.9,35.1,17,29.80,10.0,NNW,13.8,-,N/A,,Scattered Clouds,330,2013-03-27 23:53:00
5:53 PM,82.9,36.0,19,29.81,10.0,NNW,15.0,-,N/A,,Scattered Clouds,330,2013-03-28 00:53:00
6:53 PM,79.0,39.0,24,29.82,10.0,WNW,16.1,23.0,N/A,,Clear,290,2013-03-28 01:53:00
7:53 PM,77.0,39.9,26,29.84,10.0,NW,12.7,29.9,N/A,,Clear,310,2013-03-28 02:53:00
8:53 PM,73.9,43.0,33,29.86,10.0,NW,13.8,24.2,N/A,,Clear,320,2013-03-28 03:53:00
9:53 PM,73.9,42.1,32,29.88,10.0,NW,10.4,-,N/A,,Clear,310,2013-03-28 04:53:00
10:53 PM,70.0,43.0,38,29.88,10.0,South,5.8,-,N/A,,Clear,170,2013-03-28 05:53:00
11:53 PM,68.0,45.0,43,29.88,10.0,SSE,4.6,-,N/A,,Clear,150,2013-03-28 06:53:00